Elka Sirius — A8GQ7 — position and weather

sailwx.info

Track history (hours):
 
Tides and Currents Weather Stations Pressure Air Temp Water Temp Dewpoint Dewpoint Depression Visibility Wind Speed Wind Dir Waves Ship Positions

Elka Sirius

Last reported at 2017-Oct-21 20:37 UTC. Time now 2017-Nov-18 17:55 UTC.
Position S 25°44' W 046°26'.
Warning: this ship's position is 27 days out of date.

Length 189 m; draft 10 m.

Type: Tanker. MMSI: 636012627.

Date/timePositionNaut miles runAvg speedWind from/ knotsBaromVisibWave heightAir tempDewpointWater temp
2017-Oct-21 20:37S 25°44' W 046°26'211.9
2017-Oct-21 20:29S 25°45' W 046°25'611.8
2017-Oct-21 20:00S 25°45' W 046°18'612.1
2017-Oct-21 19:30S 25°45' W 046°12'612.2
2017-Oct-21 19:00S 25°46' W 046°05'612.4
2017-Oct-21 18:30S 25°46' W 045°58'712.4
2017-Oct-21 17:56S 25°47' W 045°50'2212.4
2017-Oct-21 16:07S 25°48' W 045°25'312.7
2017-Oct-21 15:53S 25°49' W 045°22'512.7
2017-Oct-21 15:30S 25°49' W 045°16'612.6
2017-Oct-21 15:00S 25°50' W 045°10'1312.7
2017-Oct-21 13:57S 25°50' W 044°55'612.9
2017-Oct-21 13:30S 25°50' W 044°48'712.8
2017-Oct-21 12:56S 25°50' W 044°40'  
Track history (hours):
 
Tides and Currents Weather Stations Pressure Air Temp Water Temp Dewpoint Dewpoint Depression Visibility Wind Speed Wind Dir Waves Ship Positions

Elka Sirius

Last reported at 2017-Oct-21 20:37 UTC. Time now 2017-Nov-18 17:55 UTC.
Position S 25°44' W 046°26'.
Warning: this ship's position is 27 days out of date.

Length 189 m; draft 10 m.

Type: Tanker. MMSI: 636012627.

Date/timePositionNaut miles runAvg speedWind from/ knotsBaromVisibWave heightAir tempDewpointWater temp
2017-Oct-21 20:37S 25°44' W 046°26'211.9
2017-Oct-21 20:29S 25°45' W 046°25'611.8
2017-Oct-21 20:00S 25°45' W 046°18'612.1
2017-Oct-21 19:30S 25°45' W 046°12'612.2
2017-Oct-21 19:00S 25°46' W 046°05'612.4
2017-Oct-21 18:30S 25°46' W 045°58'712.4
2017-Oct-21 17:56S 25°47' W 045°50'2212.4
2017-Oct-21 16:07S 25°48' W 045°25'312.7
2017-Oct-21 15:53S 25°49' W 045°22'512.7
2017-Oct-21 15:30S 25°49' W 045°16'612.6
2017-Oct-21 15:00S 25°50' W 045°10'1312.7
2017-Oct-21 13:57S 25°50' W 044°55'612.9
2017-Oct-21 13:30S 25°50' W 044°48'712.8
2017-Oct-21 12:56S 25°50' W 044°40'  

Dump ship's entire track history